Thunder radar more information blitzortung!


Rain radar  rain snow radar



Ingen spesiell oppmerksomhet nødvendig.    Det er ingen advarsler

Nearby METAR Reports

   
ENZV - Stavanger
Oppdatert: Jun 16 2019 3:50 am
For det meste Overskyet  
For det meste Overskyet  
   Vind: SV 2.6 m/s
Vind: SV 2.6 m/s
Temperatur: 15°C
Duggpunkt: 13°C
Luftfuktighet: 88%
Barometer: 1011 hPa
Skyer: Mostly Cloudy
Sikt: More than 10 km
Detaljer skyer: Noen skyer 3300 ft,
For det meste Overskyet 5700 ft
ENZV 160150Z 22005KT 9999 FEW033 BKN057 15/13 Q1011
ENCN - Kristiansand
Oppdatert: Jun 16 2019 4:20 am
Lett Regn, Overskyet  
Lett Regn, Overskyet  
   Vind: varierende 0.5 m/s
Vind: varierende 0.5 m/s
Temperatur: 14°C
Duggpunkt: 14°C
Luftfuktighet: 100%
Barometer: 1012 hPa
Skyer: Overcast
Sikt: More than 10 km
Detaljer skyer: Overskyet 3700 ft
ENCN 160220Z AUTO VRB01KT 9999 -RA OVC037/// 14/14 Q1012
ENBR - Bergen
Oppdatert: Jun 16 2019 3:50 am
Regn, For det meste Overskyet  
Regn, For det meste Overskyet  
   Vind: Stille
Vind: Stille
Temperatur: 15°C
Duggpunkt: 14°C
Luftfuktighet: 94%
Barometer: 1011 hPa
Skyer: Mostly Cloudy
Sikt: More than 10 km
Detaljer skyer: Delvis overskyet 3500 ft,
For det meste Overskyet 6000 ft
ENBR 160150Z 00000KT 9999 RA SCT035 BKN060 15/14 Q1011 RMK WIND 1200FT VRB01KT
ENGM - Oslo
Oppdatert: Jun 16 2019 4:20 am
Klart  
Klart  
   Vind: Stille
Vind: Stille
Temperatur: 13°C
Duggpunkt: 10°C
Luftfuktighet: 82%
Barometer: 1013 hPa
Sikt: More than 10 km
Detaljer skyer: Klart ft
ENGM 160220Z 00000KT CAVOK 13/10 Q1013
ENVA - Trondheim
Oppdatert: Jun 16 2019 4:20 am
Klart  
Klart  
   Vind: ØSØ 3.1 m/s
Vind: ØSØ 3.1 m/s
Temperatur: 11°C
Duggpunkt: 10°C
Luftfuktighet: 94%
Barometer: 1014 hPa
Sikt: More than 10 km
Detaljer skyer: Klart ft
ENVA 160220Z 12006KT CAVOK 11/10 Q1014 RMK WIND 670FT 11003KT
ENTC - Tromsø
Oppdatert: Jun 16 2019 4:20 am
For det meste Overskyet  
For det meste Overskyet  
   Vind: varierende 1.5 m/s
Vind: varierende 1.5 m/s
Temperatur: 7°C
Wind Chill: 6°C
Duggpunkt: 4°C
Luftfuktighet: 81%
Barometer: 1017 hPa
Skyer: Mostly Cloudy
Sikt: More than 10 km
Detaljer skyer: For det meste Overskyet 1500 ft
ENTC 160220Z VRB03KT 9999 BKN015 07/04 Q1017 RMK WIND 2600FT 29006KT

Script utviklet av  Saratoga-weather.org Tilpasset for tamplaten av  Weerstation Leuven

Du finner vår vær info også på:

European Weather Network

WeatherCloud

Weather Underground

AWEKAS

HAMweather, WeatherForYou, PWS Weather

Utrustning vi bruker:

vær-station
Davis VP2

vær-programmet
Weather Display

Davis VP2

Weather Display